Time;durP1;ratioP1;P1;durP2;ratioP2;P2;SDS_P1;SDS_P2;PMS_P1;PMS_P2;Temp;Humidity;BMP_temperature;BMP_pressure;BME280_temperature;BME280_humidity;BME280_pressure;Samples;Min_cycle;Max_cycle;Signal;HPM_P1;HPM_P2
2022/10/05 00:00:46;;;;;;;13.55;8.23;;;15.20;99.90;;;;;;5054872;28;20041;-61
2022/10/05 00:03:11;;;;;;;13.32;7.93;;;14.90;99.90;;;;;;5054418;28;20090;-61
2022/10/05 00:05:41;;;;;;;12.35;8.02;;;15.20;99.90;;;;;;5054553;28;20037;-61
2022/10/05 00:08:09;;;;;;;11.30;7.40;;;15.30;99.90;;;;;;5054390;28;20037;-61
2022/10/05 00:10:35;;;;;;;13.63;7.93;;;15.20;99.90;;;;;;5052967;28;20049;-61
2022/10/05 00:13:01;;;;;;;13.82;7.57;;;15.30;99.90;;;;;;5054071;28;20428;-61
2022/10/05 00:15:29;;;;;;;15.32;7.13;;;15.30;99.90;;;;;;5052773;28;20053;-61
2022/10/05 00:18:01;;;;;;;13.45;7.88;;;15.30;99.90;;;;;;5053458;28;20041;-61
2022/10/05 00:20:27;;;;;;;12.00;7.40;;;15.00;99.90;;;;;;5054377;28;20049;-61
2022/10/05 00:23:00;;;;;;;12.05;7.88;;;15.20;99.90;;;;;;5054216;28;20047;-60
2022/10/05 00:25:26;;;;;;;15.75;7.43;;;;;;;;;;5054252;28;20120;-60
2022/10/05 00:27:58;;;;;;;10.88;7.28;;;15.40;99.90;;;;;;5053906;28;20044;-61
2022/10/05 00:30:31;;;;;;;9.73;6.90;;;15.00;99.90;;;;;;5053900;28;20049;-60
2022/10/05 00:32:57;;;;;;;11.27;6.80;;;15.30;99.90;;;;;;5053783;28;20472;-60
2022/10/05 00:35:24;;;;;;;12.13;7.68;;;;;;;;;;5053725;28;20036;-60
2022/10/05 00:37:54;;;;;;;13.25;7.18;;;15.20;99.90;;;;;;5053833;28;20044;-61
2022/10/05 00:40:40;;;;;;;14.60;6.85;;;15.20;99.90;;;;;;5053593;28;20558;-61
2022/10/05 00:43:30;;;;;;;10.70;6.57;;;15.20;99.90;;;;;;5053833;28;20040;-60
2022/10/05 00:46:11;;;;;;;14.35;6.93;;;15.20;99.90;;;;;;5053580;28;20044;-61
2022/10/05 00:48:51;;;;;;;13.85;6.80;;;15.20;99.90;;;;;;5053644;28;20076;-61
2022/10/05 00:51:28;;;;;;;9.88;7.20;;;15.20;99.90;;;;;;5053583;28;20037;-60
2022/10/05 00:54:03;;;;;;;12.20;7.45;;;15.20;99.90;;;;;;5052100;28;20048;-61
2022/10/05 00:56:47;;;;;;;10.30;7.32;;;15.10;99.90;;;;;;5053641;28;20048;-61
2022/10/05 00:59:47;;;;;;;10.70;7.65;;;15.40;99.90;;;;;;5053988;28;20036;-61
2022/10/05 01:02:38;;;;;;;11.25;7.50;;;15.20;99.90;;;;;;5053699;28;20045;-61
2022/10/05 01:05:38;;;;;;;13.88;8.50;;;15.20;99.90;;;;;;5053527;28;20413;-61
2022/10/05 01:08:22;;;;;;;14.57;8.52;;;15.10;99.90;;;;;;5053124;28;20048;-61
2022/10/05 01:10:58;;;;;;;14.65;8.30;;;15.20;99.90;;;;;;5053409;28;20045;-61
2022/10/05 01:13:50;;;;;;;14.82;8.30;;;15.10;99.90;;;;;;5053051;28;20103;-61
2022/10/05 01:16:42;;;;;;;14.93;8.95;;;15.30;99.90;;;;;;5050868;28;20091;-61
2022/10/05 01:19:13;;;;;;;13.85;8.63;;;15.20;99.90;;;;;;5042235;28;20045;-61
2022/10/05 01:21:49;;;;;;;15.70;9.43;;;15.20;99.90;;;;;;5033213;28;20045;-61
2022/10/05 01:24:24;;;;;;;;;;;15.20;99.90;;;;;;5033558;28;20038;-61
2022/10/05 01:26:49;;;;;;;15.27;9.07;;;15.10;99.90;;;;;;5033205;28;20277;-61
2022/10/05 01:29:30;;;;;;;19.58;9.85;;;15.10;99.90;;;;;;5032450;28;20053;-60
2022/10/05 01:32:07;;;;;;;14.65;9.57;;;15.30;99.90;;;;;;5033074;28;20041;-60
2022/10/05 01:34:43;;;;;;;15.57;8.77;;;15.10;99.90;;;;;;5033204;28;20033;-60
2022/10/05 01:37:46;;;;;;;16.30;9.90;;;15.10;99.90;;;;;;5032870;28;20363;-60
2022/10/05 01:40:41;;;;;;;13.10;9.32;;;15.10;99.90;;;;;;5032785;28;20087;-60
2022/10/05 01:43:31;;;;;;;15.93;9.73;;;15.10;99.90;;;;;;5032135;28;20137;-60
2022/10/05 01:46:16;;;;;;;14.50;9.07;;;15.10;99.90;;;;;;5032866;28;20049;-60
2022/10/05 01:49:01;;;;;;;15.68;9.88;;;15.10;99.90;;;;;;5033035;28;20077;-60
2022/10/05 01:51:48;;;;;;;14.52;10.27;;;15.00;99.90;;;;;;5033110;28;20053;-61
2022/10/05 01:54:35;;;;;;;17.13;9.73;;;14.60;99.90;;;;;;5032892;28;20043;-61
2022/10/05 01:57:10;;;;;;;17.88;9.90;;;15.00;99.90;;;;;;5033026;28;20042;-61
2022/10/05 02:00:09;;;;;;;14.05;9.20;;;15.00;99.90;;;;;;5032748;28;20048;-61
2022/10/05 02:02:49;;;;;;;13.20;9.65;;;15.00;99.90;;;;;;5032325;28;20042;-61
2022/10/05 02:05:20;;;;;;;15.32;9.23;;;15.10;99.90;;;;;;5032621;28;20045;-61
2022/10/05 02:07:59;;;;;;;17.80;9.90;;;15.00;99.90;;;;;;5032691;28;20037;-60
2022/10/05 02:10:57;;;;;;;14.45;8.90;;;15.00;99.90;;;;;;5032804;28;20042;-61
2022/10/05 02:13:29;;;;;;;17.25;9.35;;;15.00;99.90;;;;;;5031070;28;20057;-61
2022/10/05 02:16:03;;;;;;;15.13;9.10;;;15.00;99.90;;;;;;5044088;28;20140;-61
2022/10/05 02:18:44;;;;;;;12.30;8.80;;;15.00;99.90;;;;;;5052899;28;20036;-61
2022/10/05 02:21:10;;;;;;;16.45;9.27;;;15.00;99.90;;;;;;5052471;28;20048;-61
2022/10/05 02:23:41;;;;;;;12.93;8.70;;;15.00;99.90;;;;;;5052403;28;20063;-61
2022/10/05 02:26:09;;;;;;;11.77;8.45;;;15.00;99.90;;;;;;5052244;28;20091;-61
2022/10/05 02:28:35;;;;;;;18.00;8.73;;;;;;;;;;5052174;28;20147;-61
2022/10/05 02:31:18;;;;;;;16.95;8.27;;;15.10;99.90;;;;;;5052271;28;20048;-61
2022/10/05 02:33:44;;;;;;;11.55;8.63;;;;;;;;;;5052421;28;20048;-61
2022/10/05 02:36:17;;;;;;;13.45;8.82;;;15.00;99.90;;;;;;5052485;28;20060;-61
2022/10/05 02:38:47;;;;;;;17.60;8.77;;;14.90;99.90;;;;;;5052121;28;20041;-61
2022/10/05 02:41:41;;;;;;;13.25;9.05;;;15.40;99.90;;;;;;5053746;28;20041;-61
2022/10/05 02:44:24;;;;;;;14.38;8.55;;;14.80;99.90;;;;;;5055550;28;20047;-62
2022/10/05 02:46:52;;;;;;;12.38;8.02;;;;;;;;;;5056152;28;20044;-61
2022/10/05 02:49:43;;;;;;;13.20;8.27;;;15.40;99.90;;;;;;5056177;28;20037;-61
2022/10/05 02:52:17;;;;;;;13.30;8.15;;;14.80;99.90;;;;;;5055661;28;20479;-61
2022/10/05 02:55:05;;;;;;;13.57;7.60;;;14.70;99.90;;;;;;5055833;28;20041;-61
2022/10/05 02:57:41;;;;;;;13.80;8.02;;;14.80;99.90;;;;;;5055999;28;20037;-61
2022/10/05 03:00:17;;;;;;;13.90;8.27;;;14.70;99.90;;;;;;5055701;28;20080;-61
2022/10/05 03:02:56;;;;;;;14.43;7.50;;;15.10;99.90;;;;;;5054086;28;20076;-61
2022/10/05 03:05:30;;;;;;;10.65;7.82;;;14.80;99.90;;;;;;5055395;28;20048;-60
2022/10/05 03:08:17;;;;;;;10.98;7.97;;;14.80;99.90;;;;;;5055396;28;20041;-60
2022/10/05 03:10:58;;;;;;;12.57;7.85;;;14.80;99.90;;;;;;5055686;28;20094;-60
2022/10/05 03:13:51;;;;;;;12.13;8.27;;;14.70;99.90;;;;;;5055322;28;20147;-60
2022/10/05 03:16:30;;;;;;;13.50;8.18;;;14.80;99.90;;;;;;5055488;28;20045;-60
2022/10/05 03:19:05;;;;;;;15.57;8.55;;;15.30;99.90;;;;;;5055838;28;20138;-60
2022/10/05 03:22:00;;;;;;;14.88;9.00;;;14.30;99.90;;;;;;5055397;28;20169;-60
2022/10/05 03:24:42;;;;;;;12.38;8.27;;;14.50;99.90;;;;;;5055244;28;20090;-60
2022/10/05 03:27:35;;;;;;;11.57;8.30;;;14.90;99.90;;;;;;5055214;28;20090;-60
2022/10/05 03:30:17;;;;;;;14.38;8.70;;;14.10;99.90;;;;;;5055147;28;20081;-60
2022/10/05 03:32:43;;;;;;;13.93;8.40;;;;;;;;;;5054997;28;20045;-60
2022/10/05 03:35:31;;;;;;;13.35;8.88;;;14.40;99.90;;;;;;5054800;28;20044;-60
2022/10/05 03:38:18;;;;;;;11.20;8.75;;;14.50;99.90;;;;;;5054881;28;20124;-60
2022/10/05 03:41:10;;;;;;;12.82;8.98;;;15.10;99.90;;;;;;5047421;28;20404;-61
2022/10/05 03:43:39;;;;;;;14.75;9.10;;;14.60;99.90;;;;;;5054826;28;20051;-61
2022/10/05 03:46:29;;;;;;;14.30;8.73;;;14.30;99.90;;;;;;5054614;28;20041;-61
2022/10/05 03:49:20;;;;;;;14.15;9.20;;;14.20;99.90;;;;;;5054698;28;20077;-61
2022/10/05 03:51:59;;;;;;;13.55;9.32;;;14.60;99.90;;;;;;5054418;28;20037;-60
2022/10/05 03:54:38;;;;;;;16.38;9.48;;;14.80;99.90;;;;;;5054637;28;20041;-60
2022/10/05 03:57:16;;;;;;;12.13;9.02;;;14.00;99.90;;;;;;5054874;28;20041;-61
2022/10/05 03:59:59;;;;;;;12.90;9.70;;;14.50;99.90;;;;;;5054409;28;20040;-61
2022/10/05 04:02:49;;;;;;;15.75;9.13;;;14.70;99.90;;;;;;5054725;28;20440;-60
2022/10/05 04:05:25;;;;;;;14.88;9.23;;;14.50;99.90;;;;;;5054352;28;20048;-60
2022/10/05 04:08:00;;;;;;;14.80;10.00;;;14.30;99.90;;;;;;5053272;28;20516;-60
2022/10/05 04:10:49;;;;;;;14.20;10.35;;;14.20;99.90;;;;;;5054451;28;20041;-60
2022/10/05 04:13:42;;;;;;;14.85;10.00;;;14.70;99.90;;;;;;5054124;28;20109;-60
2022/10/05 04:16:32;;;;;;;16.02;10.30;;;14.10;99.90;;;;;;5049280;28;20047;-60
2022/10/05 04:19:14;;;;;;;17.10;10.30;;;14.20;99.90;;;;;;5054439;28;20045;-60
2022/10/05 04:22:02;;;;;;;17.83;10.90;;;14.10;99.90;;;;;;5054036;28;20041;-60
2022/10/05 04:24:59;;;;;;;14.57;10.45;;;14.40;99.90;;;;;;5054077;28;20517;-60
2022/10/05 04:28:01;;;;;;;15.32;10.20;;;14.40;99.90;;;;;;5048391;28;20052;-60
2022/10/05 04:30:32;;;;;;;14.98;10.60;;;14.50;99.90;;;;;;5054375;28;20102;-60
2022/10/05 04:32:59;;;;;;;16.42;10.48;;;14.40;99.90;;;;;;5054051;28;20033;-60
2022/10/05 04:35:45;;;;;;;17.65;10.65;;;12.20;99.90;;;;;;5053999;28;20120;-60
2022/10/05 04:38:58;;;;;;;14.50;10.98;;;14.40;99.90;;;;;;5054277;28;20041;-60
2022/10/05 04:41:42;;;;;;;19.40;11.48;;;14.40;99.90;;;;;;5053701;28;20037;-61
2022/10/05 04:44:37;;;;;;;16.67;11.65;;;14.40;99.90;;;;;;5052294;28;20098;-60
2022/10/05 04:47:05;;;;;;;16.65;11.57;;;14.60;99.90;;;;;;5053429;28;20528;-60
2022/10/05 04:49:31;;;;;;;20.90;12.70;;;;;;;;;;5053709;28;20358;-60
2022/10/05 04:52:24;;;;;;;16.80;12.27;;;14.50;99.90;;;;;;5053708;28;20038;-60
2022/10/05 04:55:17;;;;;;;19.35;11.85;;;14.30;99.90;;;;;;5052775;28;20045;-60
2022/10/05 04:58:06;;;;;;;16.50;11.68;;;14.30;99.90;;;;;;5053535;28;20044;-61
2022/10/05 05:01:22;;;;;;;18.70;12.00;;;14.10;99.90;;;;;;5053105;28;20520;-62
2022/10/05 05:04:16;;;;;;;20.50;12.55;;;14.10;99.90;;;;;;5011293;28;20620;-61
2022/10/05 05:07:15;;;;;;;18.25;13.02;;;14.10;99.90;;;;;;5008551;28;20092;-61
2022/10/05 05:10:00;;;;;;;18.75;12.80;;;14.20;99.90;;;;;;4988918;28;20447;-60
2022/10/05 05:12:25;;;;;;;18.70;12.73;;;14.00;99.90;;;;;;5011409;28;20049;-60
2022/10/05 05:15:21;;;;;;;22.83;13.38;;;14.10;99.90;;;;;;5010946;28;20065;-60
2022/10/05 05:18:08;;;;;;;21.50;13.37;;;13.90;99.90;;;;;;5011356;28;20556;-60
2022/10/05 05:21:08;;;;;;;20.38;13.93;;;14.10;99.90;;;;;;5011235;28;20046;-60
2022/10/05 05:23:56;;;;;;;20.33;13.02;;;13.80;99.90;;;;;;5008442;28;20106;-61
2022/10/05 05:26:41;;;;;;;21.00;12.70;;;14.20;99.90;;;;;;5011198;28;20044;-60
2022/10/05 05:29:26;;;;;;;16.85;13.23;;;13.40;99.90;;;;;;5011179;28;20077;-60
2022/10/05 05:31:59;;;;;;;21.55;14.63;;;14.00;99.90;;;;;;4994976;28;20050;-60
2022/10/05 05:34:49;;;;;;;18.75;13.40;;;13.90;99.90;;;;;;5011129;28;20042;-60
2022/10/05 05:37:34;;;;;;;21.70;13.50;;;14.20;99.90;;;;;;5027047;28;20049;-61
2022/10/05 05:40:09;;;;;;;23.37;14.10;;;13.90;99.90;;;;;;5053311;28;20400;-60
2022/10/05 05:43:00;;;;;;;20.67;13.40;;;14.20;99.90;;;;;;5053258;28;20268;-60
2022/10/05 05:45:51;;;;;;;21.55;14.30;;;14.00;99.90;;;;;;5053080;28;20443;-60
2022/10/05 05:48:25;;;;;;;21.45;14.02;;;14.10;99.90;;;;;;5053092;28;20093;-60
2022/10/05 05:50:55;;;;;;;19.25;14.27;;;14.10;99.90;;;;;;5052747;28;20037;-60
2022/10/05 05:53:32;;;;;;;22.50;13.55;;;14.10;99.90;;;;;;5051534;28;20072;-60
2022/10/05 05:56:20;;;;;;;24.30;13.70;;;14.10;99.90;;;;;;5041753;28;20065;-61
2022/10/05 05:59:18;;;;;;;19.95;13.50;;;14.10;99.90;;;;;;5052118;28;20504;-61
2022/10/05 06:01:49;;;;;;;18.35;13.77;;;14.30;99.90;;;;;;5050028;28;20087;-61
2022/10/05 06:04:21;;;;;;;18.40;13.00;;;13.90;99.90;;;;;;5051651;28;20025;-61
2022/10/05 06:06:50;;;;;;;17.60;13.30;;;13.80;99.90;;;;;;5051055;28;20485;-61
2022/10/05 06:09:24;;;;;;;20.65;14.10;;;14.60;99.90;;;;;;5051513;28;20159;-61
2022/10/05 06:11:59;;;;;;;19.85;13.25;;;14.90;99.90;;;;;;5038915;28;20110;-61
2022/10/05 06:14:38;;;;;;;17.40;13.70;;;14.20;99.90;;;;;;5047636;28;20516;-60
2022/10/05 06:17:21;;;;;;;16.23;13.02;;;14.20;99.90;;;;;;5051242;28;20487;-61
2022/10/05 06:19:49;;;;;;;22.25;13.77;;;14.00;99.90;;;;;;5052462;28;20515;-61
2022/10/05 06:22:37;;;;;;;20.95;13.82;;;14.10;99.90;;;;;;5052939;28;20561;-60
2022/10/05 06:25:12;;;;;;;22.55;13.38;;;14.70;99.90;;;;;;5053784;28;20119;-60
2022/10/05 06:28:02;;;;;;;18.70;13.77;;;14.20;99.90;;;;;;5054224;28;20139;-60
2022/10/05 06:30:47;;;;;;;16.52;12.90;;;14.20;99.90;;;;;;5053619;28;20829;-60
2022/10/05 06:33:32;;;;;;;19.25;12.85;;;14.70;99.90;;;;;;5045589;28;20143;-60
2022/10/05 06:36:09;;;;;;;15.98;12.27;;;14.30;99.90;;;;;;5051223;28;20044;-60
2022/10/05 06:38:36;;;;;;;17.00;12.65;;;;;;;;;;5054936;28;20055;-60
2022/10/05 06:41:25;;;;;;;15.35;11.93;;;14.00;99.90;;;;;;5061111;28;20064;-60
2022/10/05 06:44:06;;;;;;;16.15;12.18;;;14.40;99.90;;;;;;5054816;28;20039;-60
2022/10/05 06:46:32;;;;;;;18.95;12.23;;;;;;;;;;5053347;28;20453;-60
2022/10/05 06:49:16;;;;;;;14.48;11.38;;;14.40;99.90;;;;;;5054983;28;20123;-60
2022/10/05 06:51:55;;;;;;;15.73;11.23;;;14.60;99.90;;;;;;5054215;28;20484;-60
2022/10/05 06:55:02;;;;;;;15.27;11.13;;;14.50;99.90;;;;;;5053895;28;20033;-61
2022/10/05 06:57:57;;;;;;;15.38;10.85;;;14.40;99.90;;;;;;5054388;28;20037;-61
2022/10/05 07:00:29;;;;;;;15.10;10.98;;;14.70;99.90;;;;;;5046749;28;20098;-60
2022/10/05 07:03:25;;;;;;;18.10;11.30;;;14.70;99.90;;;;;;5054362;28;20036;-61
2022/10/05 07:05:51;;;;;;;15.68;10.57;;;14.30;99.90;;;;;;5054250;28;20051;-61
2022/10/05 07:08:23;;;;;;;15.25;10.68;;;14.60;99.90;;;;;;5054319;28;20187;-60
2022/10/05 07:11:02;;;;;;;15.52;10.68;;;14.60;99.90;;;;;;5054589;28;20041;-60
2022/10/05 07:13:42;;;;;;;13.93;10.77;;;14.60;99.90;;;;;;5052436;28;20432;-61
2022/10/05 07:16:32;;;;;;;15.25;10.23;;;14.70;99.90;;;;;;5051811;28;20041;-60
2022/10/05 07:19:20;;;;;;;18.58;10.95;;;14.70;99.90;;;;;;5046487;28;20049;-60
2022/10/05 07:22:20;;;;;;;17.85;10.45;;;14.70;99.90;;;;;;5055394;28;20041;-60
2022/10/05 07:25:02;;;;;;;15.90;10.85;;;14.90;99.90;;;;;;5058134;28;20033;-60
2022/10/05 07:27:36;;;;;;;12.60;10.18;;;15.00;99.90;;;;;;5042393;28;20459;-60
2022/10/05 07:30:11;;;;;;;17.88;10.55;;;14.80;99.90;;;;;;5047757;28;20086;-60
2022/10/05 07:33:00;;;;;;;17.17;10.88;;;14.90;99.90;;;;;;5042886;28;20044;-60
2022/10/05 07:38:20;;;;;;;14.80;10.80;;;14.70;99.90;;;;;;5045756;28;20195;-61
2022/10/05 07:41:03;;;;;;;13.07;10.73;;;14.60;99.90;;;;;;5045922;28;20043;-61
2022/10/05 07:43:57;;;;;;;12.73;10.65;;;14.80;99.90;;;;;;5044601;28;20402;-61
2022/10/05 07:46:47;;;;;;;17.80;11.15;;;15.00;99.90;;;;;;5042378;28;20097;-61
2022/10/05 07:49:35;;;;;;;13.73;10.15;;;15.10;99.90;;;;;;5046260;28;20037;-61
2022/10/05 07:52:08;;;;;;;18.73;10.45;;;14.80;99.90;;;;;;5042346;28;20028;-61
2022/10/05 07:55:09;;;;;;;14.25;10.45;;;15.50;99.90;;;;;;5045436;28;20095;-61
2022/10/05 07:58:03;;;;;;;14.80;11.00;;;14.90;99.90;;;;;;5038113;28;20095;-61
2022/10/05 08:01:20;;;;;;;14.57;10.60;;;14.90;99.90;;;;;;5042136;28;20047;-60
2022/10/05 08:03:47;;;;;;;14.18;9.80;;;;;;;;;;4993215;28;20560;-61
2022/10/05 08:06:34;;;;;;;13.85;9.88;;;14.90;99.90;;;;;;4991895;28;20046;-61
2022/10/05 08:09:27;;;;;;;13.35;10.27;;;14.70;99.90;;;;;;4999087;28;20585;-61
2022/10/05 08:12:21;;;;;;;16.98;9.85;;;15.10;99.90;;;;;;4992041;28;20046;-61
2022/10/05 08:14:55;;;;;;;12.95;9.68;;;15.10;99.90;;;;;;4992270;28;20387;-61
2022/10/05 08:18:01;;;;;;;15.45;9.73;;;15.20;99.90;;;;;;4993076;28;20042;-61
2022/10/05 08:20:36;;;;;;;18.65;9.82;;;15.30;99.90;;;;;;4989807;28;20053;-61
2022/10/05 08:23:16;;;;;;;13.30;9.07;;;15.40;99.90;;;;;;4988581;28;20046;-61
2022/10/05 08:26:01;;;;;;;11.85;8.98;;;15.40;99.90;;;;;;5006895;28;20054;-61
2022/10/05 08:28:34;;;;;;;12.32;9.27;;;14.60;99.90;;;;;;4989060;28;20584;-61
2022/10/05 08:31:02;;;;;;;16.50;9.10;;;15.60;99.90;;;;;;4991144;28;20045;-61
2022/10/05 08:33:44;;;;;;;14.48;8.88;;;15.30;99.90;;;;;;4988534;28;20141;-61
2022/10/05 08:36:13;;;;;;;10.98;8.82;;;15.40;99.90;;;;;;4990924;28;20077;-62
2022/10/05 08:38:40;;;;;;;12.48;8.82;;;15.10;99.90;;;;;;5037122;28;20052;-62
2022/10/05 08:41:42;;;;;;;14.00;8.75;;;15.80;99.90;;;;;;5043874;28;20071;-62
2022/10/05 08:44:29;;;;;;;12.70;8.32;;;15.70;99.90;;;;;;5042391;28;20065;-62
2022/10/05 08:47:40;;;;;;;12.45;8.30;;;15.70;99.90;;;;;;5041940;28;20309;-62
2022/10/05 08:50:37;;;;;;;9.82;8.02;;;15.70;99.90;;;;;;5042529;28;20046;-62
2022/10/05 08:53:28;;;;;;;9.60;7.95;;;15.70;99.90;;;;;;5045247;28;20359;-61
2022/10/05 08:56:12;;;;;;;13.23;7.72;;;15.80;99.90;;;;;;5056349;28;20043;-62
2022/10/05 08:58:59;;;;;;;12.88;7.80;;;15.90;99.90;;;;;;5063277;28;20037;-61
2022/10/05 09:02:03;;;;;;;9.13;7.43;;;16.10;99.90;;;;;;5045224;28;20068;-61
2022/10/05 09:04:56;;;;;;;11.35;7.10;;;16.00;99.90;;;;;;5041524;28;20076;-61
2022/10/05 09:07:42;;;;;;;8.88;6.57;;;16.20;99.90;;;;;;5043819;28;20070;-62
2022/10/05 09:10:37;;;;;;;8.95;6.65;;;16.20;99.90;;;;;;5076172;28;20048;-62
2022/10/05 09:13:21;;;;;;;11.75;6.78;;;16.30;99.90;;;;;;5042582;28;20107;-61
2022/10/05 09:16:08;;;;;;;10.02;6.55;;;16.40;99.90;;;;;;5042866;28;20041;-59
2022/10/05 09:18:50;;;;;;;7.05;5.93;;;16.40;99.90;;;;;;5042583;28;20037;-59
2022/10/05 09:21:28;;;;;;;9.88;6.05;;;16.30;99.90;;;;;;5040768;28;20488;-59
2022/10/05 09:24:09;;;;;;;10.98;5.90;;;16.50;99.90;;;;;;5041593;28;20119;-58
2022/10/05 09:26:57;;;;;;;8.48;5.90;;;16.50;99.90;;;;;;5042492;28;20041;-58
2022/10/05 09:29:51;;;;;;;9.68;5.68;;;16.40;99.90;;;;;;5042599;28;20033;-59
2022/10/05 09:32:17;;;;;;;6.53;4.95;;;;;;;;;;5042481;28;20050;-60
2022/10/05 09:35:14;;;;;;;8.07;5.35;;;16.30;99.90;;;;;;5041989;28;20037;-62
2022/10/05 09:38:18;;;;;;;13.27;5.57;;;16.50;99.90;;;;;;5046482;28;20030;-60
2022/10/05 09:41:05;;;;;;;10.27;5.80;;;16.10;99.90;;;;;;5048444;28;20099;-59
2022/10/05 09:44:15;;;;;;;7.85;5.80;;;16.80;99.90;;;;;;5052686;28;20091;-60
2022/10/05 09:46:57;;;;;;;7.70;5.60;;;16.70;99.90;;;;;;5044093;28;20413;-60
2022/10/05 09:50:00;;;;;;;7.90;5.65;;;16.80;99.90;;;;;;5051339;28;20511;-58
2022/10/05 09:52:54;;;;;;;8.38;5.80;;;16.50;99.90;;;;;;5054295;28;20055;-59
2022/10/05 09:55:31;;;;;;;10.82;6.10;;;16.50;99.90;;;;;;5053060;28;20119;-58
2022/10/05 09:58:27;;;;;;;7.72;5.65;;;16.10;99.90;;;;;;5069617;28;20040;-58
2022/10/05 10:01:01;;;;;;;11.82;6.10;;;16.40;99.90;;;;;;5074195;28;20055;-58
2022/10/05 10:04:06;;;;;;;7.63;5.80;;;16.90;99.90;;;;;;5051281;28;20080;-58
2022/10/05 10:06:54;;;;;;;8.93;5.50;;;16.90;99.90;;;;;;5030235;28;20103;-58
2022/10/05 10:09:32;;;;;;;9.85;5.95;;;16.70;99.90;;;;;;5049697;28;20044;-58
2022/10/05 10:12:17;;;;;;;10.32;5.80;;;16.50;99.90;;;;;;5050966;28;20049;-59
2022/10/05 10:15:07;;;;;;;7.72;5.80;;;16.10;99.90;;;;;;5050989;28;20057;-58
2022/10/05 10:18:06;;;;;;;7.95;5.28;;;16.80;99.90;;;;;;5052722;28;20102;-58
2022/10/05 10:20:54;;;;;;;9.63;5.78;;;16.40;99.90;;;;;;5050546;28;20492;-58
2022/10/05 10:23:20;;;;;;;7.72;5.80;;;;;;;;;;5049928;28;20037;-58
2022/10/05 10:25:48;;;;;;;12.02;5.45;;;17.20;99.90;;;;;;5052475;28;20178;-58
2022/10/05 10:28:33;;;;;;;7.22;5.80;;;16.80;99.90;;;;;;5065265;28;20123;-58
2022/10/05 10:31:36;;;;;;;8.55;5.35;;;17.10;99.90;;;;;;5068222;28;20055;-58
2022/10/05 10:34:19;;;;;;;8.48;5.75;;;16.80;99.90;;;;;;5058014;28;20507;-59
2022/10/05 10:37:28;;;;;;;9.13;4.90;;;17.20;99.90;;;;;;5071385;28;20411;-59
2022/10/05 10:40:36;;;;;;;9.25;4.85;;;16.90;99.90;;;;;;5052023;28;20051;-59
2022/10/05 10:43:26;;;;;;;13.02;4.85;;;16.50;99.90;;;;;;5051951;28;20059;-59
2022/10/05 10:46:10;;;;;;;9.13;4.90;;;16.70;99.90;;;;;;5051046;28;20064;-59
2022/10/05 10:48:54;;;;;;;5.95;4.53;;;17.30;99.90;;;;;;5051649;28;20032;-59
2022/10/05 10:51:52;;;;;;;5.05;4.40;;;16.80;99.90;;;;;;5060810;28;20234;-59
2022/10/05 10:54:54;;;;;;;7.63;4.30;;;17.00;99.90;;;;;;5067895;28;20040;-59
2022/10/05 10:57:39;;;;;;;6.88;3.97;;;16.80;99.90;;;;;;5036165;28;20048;-59
2022/10/05 11:00:19;;;;;;;7.00;3.75;;;16.60;99.90;;;;;;5030983;28;20045;-59
2022/10/05 11:03:19;;;;;;;5.57;3.97;;;17.20;99.90;;;;;;5034401;28;20041;-59
2022/10/05 11:06:18;;;;;;;8.02;4.28;;;17.10;99.90;;;;;;5036210;28;20114;-59
2022/10/05 11:09:07;;;;;;;7.03;4.07;;;17.40;99.90;;;;;;5035716;28;20120;-59
2022/10/05 11:11:50;;;;;;;8.50;4.18;;;16.80;99.90;;;;;;5032251;28;20056;-60
2022/10/05 11:14:48;;;;;;;5.13;4.10;;;17.30;99.90;;;;;;5028903;28;20045;-59
2022/10/05 11:17:38;;;;;;;7.45;4.57;;;17.50;99.90;;;;;;5030960;28;20049;-60
2022/10/05 11:20:19;;;;;;;5.82;4.35;;;18.10;99.90;;;;;;5028198;28;20612;-60
2022/10/05 11:22:45;;;;;;;8.38;4.20;;;;;;;;;;5029370;28;20038;-59
2022/10/05 11:25:14;;;;;;;9.10;4.35;;;17.60;99.90;;;;;;5029602;28;20401;-59
2022/10/05 11:28:27;;;;;;;5.80;4.10;;;17.40;99.90;;;;;;5028947;28;20523;-59
2022/10/05 11:31:26;;;;;;;9.07;4.13;;;17.80;99.90;;;;;;5019551;28;20110;-59
2022/10/05 11:34:20;;;;;;;7.57;4.60;;;17.80;99.90;;;;;;5048974;28;20041;-59
2022/10/05 11:36:58;;;;;;;8.75;4.68;;;17.80;99.90;;;;;;5054863;28;20122;-59
2022/10/05 11:39:43;;;;;;;10.82;4.75;;;18.10;99.90;;;;;;5054934;28;20373;-59
2022/10/05 11:42:39;;;;;;;8.35;4.60;;;18.10;99.90;;;;;;5050389;28;20049;-59
2022/10/05 11:45:24;;;;;;;7.60;4.57;;;17.80;99.90;;;;;;5050081;28;20033;-59
2022/10/05 11:48:21;;;;;;;9.82;4.72;;;19.00;99.90;;;;;;5050491;28;20037;-59
2022/10/05 11:51:24;;;;;;;7.25;4.57;;;18.10;99.90;;;;;;5050303;28;20488;-59
2022/10/05 11:54:16;;;;;;;6.05;4.20;;;18.70;99.90;;;;;;5049354;28;20377;-59
2022/10/05 11:57:02;;;;;;;6.93;4.10;;;18.30;99.90;;;;;;5055112;28;20036;-59
2022/10/05 11:59:38;;;;;;;6.78;4.00;;;17.60;99.90;;;;;;5049054;28;20048;-59
2022/10/05 12:02:04;;;;;;;6.80;4.00;;;18.20;99.90;;;;;;5053242;28;20053;-60
2022/10/05 12:04:35;;;;;;;9.90;4.40;;;18.30;99.90;;;;;;5052979;28;20459;-60
2022/10/05 12:07:10;;;;;;;6.93;3.92;;;18.30;99.90;;;;;;5051355;28;20499;-59
2022/10/05 12:12:45;;;;;;;12.57;3.90;;;18.20;99.90;;;;;;5047886;28;20448;-59
2022/10/05 12:15:22;;;;;;;8.82;4.13;;;18.10;99.90;;;;;;5051328;28;20064;-60
2022/10/05 12:18:00;;;;;;;6.97;3.60;;;18.20;99.90;;;;;;5050333;28;20048;-59
2022/10/05 12:20:46;;;;;;;6.68;3.75;;;18.70;99.90;;;;;;5051554;28;20076;-60
2022/10/05 12:23:26;;;;;;;10.02;3.97;;;18.00;99.90;;;;;;5049694;28;20040;-59
2022/10/05 12:26:05;;;;;;;7.30;3.50;;;17.70;99.90;;;;;;5049419;28;20385;-60
2022/10/05 12:28:57;;;;;;;8.38;3.95;;;17.70;99.90;;;;;;5048794;28;20408;-59
2022/10/05 12:31:51;;;;;;;6.30;3.50;;;17.80;99.90;;;;;;5044122;28;20049;-59
2022/10/05 12:34:16;;;;;;;7.65;3.25;;;18.20;99.90;;;;;;5048188;28;20040;-60
2022/10/05 12:37:08;;;;;;;8.43;3.63;;;17.90;99.90;;;;;;5049150;28;20037;-60
2022/10/05 12:39:55;;;;;;;8.65;3.70;;;17.80;99.90;;;;;;5048234;28;20060;-59
2022/10/05 12:42:39;;;;;;;7.75;3.60;;;18.10;99.90;;;;;;5049417;28;20037;-59
2022/10/05 12:45:26;;;;;;;7.03;3.85;;;18.10;99.90;;;;;;5049775;28;20122;-59
2022/10/05 12:48:13;;;;;;;7.65;3.65;;;18.40;99.90;;;;;;5049092;28;20138;-59
2022/10/05 12:50:55;;;;;;;8.93;3.47;;;18.30;99.90;;;;;;5048943;28;20048;-59
2022/10/05 12:53:47;;;;;;;7.95;4.10;;;18.80;99.90;;;;;;5051068;28;20037;-60
2022/10/05 12:56:45;;;;;;;9.68;3.50;;;17.90;99.90;;;;;;5048023;28;20036;-60
2022/10/05 12:59:46;;;;;;;7.05;3.65;;;18.00;99.90;;;;;;5052651;28;20041;-59
2022/10/05 13:02:34;;;;;;;8.90;3.97;;;18.00;99.90;;;;;;5054433;28;20041;-59
2022/10/05 13:05:18;;;;;;;8.25;4.00;;;18.00;99.90;;;;;;5048239;28;20052;-60
2022/10/05 13:08:23;;;;;;;9.80;4.05;;;18.50;99.90;;;;;;5048804;28;20124;-60
2022/10/05 13:11:02;;;;;;;5.97;3.50;;;18.10;99.90;;;;;;5035850;28;20063;-60
2022/10/05 13:13:45;;;;;;;6.50;3.60;;;18.80;99.90;;;;;;5046226;28;20060;-60
2022/10/05 13:16:28;;;;;;;5.30;3.60;;;18.10;99.90;;;;;;5049804;28;20388;-60
2022/10/05 13:19:15;;;;;;;5.20;3.47;;;18.40;99.90;;;;;;5047571;28;20048;-60
2022/10/05 13:22:09;;;;;;;6.13;3.53;;;18.30;99.90;;;;;;5047685;28;20040;-60
2022/10/05 13:24:51;;;;;;;5.90;3.55;;;18.80;99.90;;;;;;5043318;28;20081;-59
2022/10/05 13:27:22;;;;;;;7.82;3.55;;;18.70;99.90;;;;;;5046212;28;20565;-60
2022/10/05 13:30:00;;;;;;;7.53;3.38;;;18.40;99.90;;;;;;5047600;28;20094;-59
2022/10/05 13:32:36;;;;;;;8.65;3.72;;;18.60;99.90;;;;;;5047841;28;20043;-59
2022/10/05 13:35:21;;;;;;;7.35;3.38;;;18.40;99.90;;;;;;5047254;28;20061;-60
2022/10/05 13:38:23;;;;;;;5.00;3.22;;;18.70;99.90;;;;;;5045283;28;20567;-59
2022/10/05 13:41:11;;;;;;;5.72;3.15;;;18.70;99.90;;;;;;5025386;28;20064;-59
2022/10/05 13:43:47;;;;;;;7.40;3.05;;;19.10;99.90;;;;;;5048487;28;20481;-59
2022/10/05 13:46:26;;;;;;;5.93;3.13;;;18.60;99.90;;;;;;5047380;28;20043;-59
2022/10/05 13:49:20;;;;;;;6.38;3.35;;;18.90;99.90;;;;;;5047538;28;20108;-60
2022/10/05 13:52:06;;;;;;;5.75;3.17;;;19.00;99.90;;;;;;5044818;28;20135;-60
2022/10/05 13:54:38;;;;;;;;;;;19.00;99.90;;;;;;5048125;28;20120;-59
2022/10/05 13:57:45;;;;;;;8.18;3.22;;;19.00;99.90;;;;;;5048829;28;20342;-59
2022/10/05 14:00:20;;;;;;;6.25;3.20;;;19.10;99.90;;;;;;5048633;28;20053;-59
2022/10/05 14:02:55;;;;;;;7.63;3.28;;;19.20;99.90;;;;;;5048082;28;20099;-60
2022/10/05 14:05:26;;;;;;;7.07;3.20;;;19.20;99.90;;;;;;5045221;28;20092;-60
2022/10/05 14:08:03;;;;;;;7.50;3.38;;;19.30;99.90;;;;;;5049773;28;20055;-59
2022/10/05 14:10:37;;;;;;;5.22;3.00;;;19.30;99.90;;;;;;5047779;28;20048;-60
2022/10/05 14:13:25;;;;;;;6.47;3.22;;;19.40;99.90;;;;;;5047136;28;21170;-58